Time;durP1;ratioP1;P1;durP2;ratioP2;P2;SDS_P1;SDS_P2;PMS_P1;PMS_P2;Temp;Humidity;BMP_temperature;BMP_pressure;BME280_temperature;BME280_humidity;BME280_pressure;Samples;Min_cycle;Max_cycle;Signal;HPM_P1;HPM_P2
2021/10/28 00:14:00;;;;;;;5.20;1.60;;;;;;;19.87;58.75;100171.69;4957128;29;20090;-90
2021/10/28 00:16:29;;;;;;;8.95;2.42;;;;;;;19.83;58.70;100157.03;4956466;28;20035;-90
2021/10/28 00:19:00;;;;;;;8.52;1.30;;;;;;;19.90;58.67;100160.69;4952540;28;20027;-90
2021/10/28 00:21:29;;;;;;;8.10;1.92;;;;;;;19.58;58.99;100157.06;4939910;29;20421;-90
2021/10/28 00:23:59;;;;;;;8.63;1.33;;;;;;;19.79;58.41;100154.72;4949190;29;20115;-90
2021/10/28 00:26:25;;;;;;;6.10;1.55;;;;;;;19.89;58.52;100157.19;4940942;29;20031;-90
2021/10/28 00:28:57;;;;;;;7.82;1.63;;;;;;;19.74;58.46;100149.06;4944914;29;20380;-91
2021/10/28 00:31:26;;;;;;;7.45;1.50;;;;;;;19.58;58.64;100141.06;4951372;29;20067;-91
2021/10/28 00:33:52;;;;;;;11.00;1.95;;;;;;;19.72;58.06;100147.56;4945623;29;20079;-91
2021/10/28 00:36:17;;;;;;;6.72;1.52;;;;;;;19.34;58.81;100145.44;4956451;28;20338;-90
2021/10/28 00:38:43;;;;;;;7.75;1.40;;;;;;;19.58;58.26;100133.09;4956037;29;20472;-90
2021/10/28 00:41:09;;;;;;;9.75;1.65;;;;;;;19.53;58.45;100132.75;4956008;28;20031;-91
2021/10/28 00:43:44;;;;;;;7.10;1.58;;;;;;;19.60;58.71;100133.75;4948788;28;20036;-90
2021/10/28 00:46:10;;;;;;;4.68;1.10;;;;;;;19.68;57.75;100132.91;4954761;28;20397;-90
2021/10/28 00:48:36;;;;;;;5.63;1.67;;;;;;;19.73;58.12;100135.94;4956157;28;20054;-90
2021/10/28 00:51:02;;;;;;;9.82;1.88;;;;;;;19.78;57.84;100128.25;4956237;28;20367;-90
2021/10/28 00:53:28;;;;;;;8.50;1.90;;;;;;;19.84;57.63;100124.06;4956087;28;20046;-91
2021/10/28 00:55:54;;;;;;;8.07;1.83;;;;;;;19.77;57.48;100118.59;4955989;29;20023;-90
2021/10/28 00:58:23;;;;;;;5.78;1.45;;;;;;;19.57;57.55;100128.78;4956199;29;20038;-90
2021/10/28 01:00:50;;;;;;;4.50;1.15;;;;;;;19.83;57.18;100112.59;4940508;29;20462;-90
2021/10/28 01:03:16;;;;;;;11.43;1.77;;;;;;;19.80;57.07;100116.41;4936853;29;20107;-90
2021/10/28 01:05:42;;;;;;;7.00;1.50;;;;;;;19.78;57.16;100122.91;4936722;29;20052;-91
2021/10/28 01:08:08;;;;;;;4.40;1.42;;;;;;;19.53;57.76;100109.63;4936765;29;20046;-89
2021/10/28 01:10:34;;;;;;;11.65;1.38;;;;;;;19.73;57.05;100110.13;4936275;29;20366;-90
2021/10/28 01:12:59;;;;;;;7.50;1.90;;;;;;;19.42;57.76;100113.47;4936603;29;20028;-90
2021/10/28 01:15:25;;;;;;;5.80;1.40;;;;;;;19.41;57.88;100114.50;4949959;29;20474;-91
2021/10/28 01:17:50;;;;;;;5.20;1.83;;;;;;;19.58;57.17;100114.44;4955711;29;20473;-91
2021/10/28 01:20:15;;;;;;;8.48;1.30;;;;;;;19.70;56.77;100114.91;4955590;29;20057;-90
2021/10/28 01:22:43;;;;;;;7.38;1.80;;;;;;;19.81;56.78;100115.41;4955565;29;20109;-90
2021/10/28 01:25:10;;;;;;;5.65;1.27;;;;;;;19.76;56.88;100117.75;4955432;29;20115;-90
2021/10/28 01:27:36;;;;;;;4.18;1.27;;;;;;;19.76;56.91;100117.75;4954107;29;20038;-91
2021/10/28 01:30:01;;;;;;;2.67;1.02;;;;;;;19.77;56.75;100122.09;4938260;29;20024;-91
2021/10/28 01:32:30;;;;;;;8.15;1.63;;;;;;;19.78;56.60;100109.59;4935928;29;20038;-91
2021/10/28 01:34:55;;;;;;;5.85;1.48;;;;;;;19.76;56.68;100112.41;4936430;29;20034;-90
2021/10/28 01:37:21;;;;;;;7.30;1.70;;;;;;;19.72;56.42;100116.44;4935800;29;20028;-89
2021/10/28 01:39:46;;;;;;;9.25;1.50;;;;;;;19.65;56.93;100126.09;4945101;29;20047;-90
2021/10/28 01:42:12;;;;;;;7.05;1.88;;;;;;;19.57;57.19;100110.13;4955210;29;20023;-90
2021/10/28 01:44:38;;;;;;;5.07;1.38;;;;;;;19.71;56.91;100112.13;4942610;29;20032;-90
2021/10/28 01:47:04;;;;;;;4.05;1.20;;;;;;;19.77;56.61;100108.78;4935986;29;20027;-90
2021/10/28 01:49:30;;;;;;;5.97;1.33;;;;;;;19.59;57.08;100110.78;4936219;29;20028;-91
2021/10/28 01:51:58;;;;;;;8.90;1.48;;;;;;;19.79;56.43;100112.09;4935994;29;20063;-90
2021/10/28 01:54:25;;;;;;;5.20;1.60;;;;;;;19.24;57.83;100118.16;4938165;29;20027;-90
2021/10/28 01:56:51;;;;;;;9.75;1.90;;;;;;;19.45;57.96;100115.00;4935741;29;20478;-90
2021/10/28 01:59:17;;;;;;;7.38;2.08;;;;;;;19.63;57.11;100106.78;4946755;29;20039;-90
2021/10/28 02:01:42;;;;;;;5.97;1.40;;;;;;;19.66;56.90;100108.28;4955180;29;20023;-90
2021/10/28 02:04:07;;;;;;;6.03;1.33;;;;;;;19.60;57.22;100112.44;4937690;29;20055;-91
2021/10/28 02:06:34;;;;;;;5.20;1.48;;;;;;;19.80;56.88;100097.75;4954824;29;20081;-90
2021/10/28 02:09:00;;;;;;;9.00;1.65;;;;;;;19.69;57.08;100094.59;4955098;29;20089;-90
2021/10/28 02:11:26;;;;;;;9.55;1.67;;;;;;;19.46;58.00;100100.66;4954615;29;20023;-91
2021/10/28 02:13:52;;;;;;;4.30;1.52;;;;;;;19.48;57.65;100077.34;4940549;29;20031;-90
2021/10/28 02:16:18;;;;;;;8.23;1.60;;;;;;;19.78;56.83;100072.28;4935445;29;20039;-91
2021/10/28 02:18:43;;;;;;;5.57;1.50;;;;;;;19.65;57.18;100067.50;4935473;29;20123;-90
2021/10/28 02:21:08;;;;;;;9.30;1.83;;;;;;;19.68;57.37;100066.31;4934329;29;20031;-90
2021/10/28 02:23:34;;;;;;;7.45;1.95;;;;;;;19.40;57.77;100070.22;4934752;29;20079;-89
2021/10/28 02:26:00;;;;;;;6.85;1.52;;;;;;;19.32;58.20;100035.63;4935453;29;20264;-90
2021/10/28 02:28:26;;;;;;;7.45;1.70;;;;;;;19.65;57.38;100034.69;4934775;29;20028;-90
2021/10/28 02:30:51;;;;;;;6.55;1.65;;;;;;;19.68;57.18;100045.84;4935217;29;20035;-90
2021/10/28 02:33:16;;;;;;;12.88;2.10;;;;;;;19.28;57.91;100060.09;4934970;29;20102;-90
2021/10/28 02:35:42;;;;;;;8.02;1.58;;;;;;;19.29;58.09;100043.94;4917953;29;20043;-91
2021/10/28 02:38:07;;;;;;;7.68;1.45;;;;;;;19.66;57.09;100041.69;4936300;29;20442;-90
2021/10/28 02:40:33;;;;;;;12.00;1.90;;;;;;;19.12;58.31;100039.69;4951329;29;20011;-90
2021/10/28 02:42:58;;;;;;;3.97;1.35;;;;;;;19.57;57.37;100048.88;4945241;29;20031;-91
2021/10/28 02:45:24;;;;;;;11.95;1.80;;;;;;;19.70;56.68;100049.16;4935009;29;20028;-90
2021/10/28 02:47:50;;;;;;;8.65;1.80;;;;;;;19.48;57.70;100041.91;4935033;29;20453;-91
2021/10/28 02:50:17;;;;;;;5.38;1.67;;;;;;;19.61;57.27;100042.22;4934734;29;20032;-90
2021/10/28 02:52:42;;;;;;;6.30;1.38;;;;;;;19.67;57.33;100044.19;4936327;29;20051;-90
2021/10/28 02:55:08;;;;;;;9.20;1.90;;;;;;;19.56;57.44;100034.72;4954028;28;20070;-90
2021/10/28 02:57:33;;;;;;;7.20;1.60;;;;;;;19.66;57.05;100034.53;4953805;28;20042;-90
2021/10/28 02:59:59;;;;;;;7.72;1.90;;;;;;;19.53;57.67;100036.88;4954027;29;20035;-89
2021/10/28 03:02:24;;;;;;;9.65;2.08;;;;;;;19.57;57.50;100033.72;4953909;28;20023;-91
2021/10/28 03:04:50;;;;;;;5.00;1.90;;;;;;;19.63;57.31;100024.22;4954008;28;20085;-90
2021/10/28 03:07:15;;;;;;;11.15;2.10;;;;;;;19.52;57.55;100016.59;4953742;29;20078;-90
2021/10/28 03:09:40;;;;;;;8.95;1.27;;;;;;;19.77;56.93;100012.88;4953914;28;20031;-90
2021/10/28 03:12:07;;;;;;;7.38;1.45;;;;;;;19.77;57.08;100012.06;4953539;28;20030;-91
2021/10/28 03:14:55;;;;;;;6.50;1.20;;;;;;;19.64;57.74;100011.72;4953899;28;20051;-91
2021/10/28 03:28:02;;;;;;;6.20;1.70;;;;;;;19.65;58.66;99987.59;4953618;29;20042;-91
2021/10/28 03:30:28;;;;;;;9.60;1.75;;;;;;;19.62;58.76;99998.59;4953699;28;20028;-91
2021/10/28 03:32:53;;;;;;;7.95;1.85;;;;;;;19.25;59.97;99996.56;4955988;28;20031;-90
2021/10/28 03:35:19;;;;;;;7.50;1.50;;;;;;;19.65;58.91;100003.56;4957820;28;20548;-90
2021/10/28 04:29:50;;;;;;;12.77;1.90;;;;;;;19.15;60.85;99940.84;4956910;29;20425;-89
2021/10/28 04:32:15;;;;;;;5.40;1.83;;;;;;;19.57;59.46;99948.50;4956600;28;20027;-90
2021/10/28 04:34:42;;;;;;;8.70;2.25;;;;;;;19.50;59.73;99942.22;4956552;29;20055;-90
2021/10/28 04:37:09;;;;;;;6.65;1.52;;;;;;;19.70;59.53;99939.94;4956626;28;20449;-90
2021/10/28 04:39:35;;;;;;;7.88;1.90;;;;;;;19.39;60.17;99935.47;4954868;29;20086;-90
2021/10/28 04:42:01;;;;;;;7.90;1.95;;;;;;;19.62;59.66;99940.81;4952688;29;20473;-91
2021/10/28 04:44:26;;;;;;;8.98;1.52;;;;;;;19.57;59.83;99932.53;4955723;28;20041;-91
2021/10/28 04:46:52;;;;;;;11.73;1.70;;;;;;;19.58;59.96;99938.69;4956463;28;20039;-90
2021/10/28 04:49:17;;;;;;;8.27;1.80;;;;;;;19.27;60.68;99934.16;4956330;29;20042;-90
2021/10/28 04:51:42;;;;;;;9.52;2.00;;;;;;;19.47;60.29;99937.25;4956266;29;20027;-90
2021/10/28 04:54:08;;;;;;;9.70;1.73;;;;;;;19.48;60.18;99927.44;4956141;29;20031;-90
2021/10/28 04:56:35;;;;;;;13.82;2.75;;;;;;;19.51;59.84;99927.91;4951496;29;20420;-91
2021/10/28 04:59:00;;;;;;;5.10;1.77;;;;;;;19.42;60.55;99921.78;4955956;29;20500;-90
2021/10/28 05:01:26;;;;;;;15.55;1.77;;;;;;;19.65;59.71;99929.00;4956121;29;20063;-90
2021/10/28 05:03:52;;;;;;;13.70;2.50;;;;;;;19.50;59.82;99925.41;4955994;29;20363;-90
2021/10/28 05:06:18;;;;;;;7.15;1.80;;;;;;;19.42;60.64;99926.28;4956053;29;20023;-90
2021/10/28 05:08:44;;;;;;;10.18;1.70;;;;;;;19.39;60.69;99923.94;4956029;29;20038;-91
2021/10/28 05:11:10;;;;;;;4.40;1.50;;;;;;;19.38;60.94;99922.31;4941484;29;20020;-90
2021/10/28 05:13:35;;;;;;;9.85;1.98;;;;;;;19.37;60.81;99920.63;4936804;29;20032;-90
2021/10/28 05:16:00;;;;;;;7.22;1.50;;;;;;;19.14;61.42;99918.75;4936727;29;20031;-90
2021/10/28 05:18:26;;;;;;;5.55;1.48;;;;;;;19.07;61.84;99901.78;4936508;29;20028;-91
2021/10/28 05:20:53;;;;;;;5.18;1.40;;;;;;;19.32;61.47;99915.84;4936654;29;20071;-90
2021/10/28 05:23:19;;;;;;;3.78;1.45;;;;;;;19.19;61.73;99907.56;4938487;29;20074;-89
2021/10/28 05:25:47;;;;;;;13.02;2.20;;;;;;;19.09;61.74;99915.75;4948939;29;20046;-91
2021/10/28 05:28:13;;;;;;;11.40;1.63;;;;;;;19.19;61.59;99904.91;4955970;29;20389;-92
2021/10/28 05:30:38;;;;;;;9.13;2.22;;;;;;;19.47;60.99;99901.78;4955945;29;20035;-89
2021/10/28 05:33:04;;;;;;;5.88;2.25;;;;;;;19.11;61.88;99897.78;4955502;29;20059;-90
2021/10/28 05:35:29;;;;;;;14.85;3.38;;;;;;;19.29;61.81;99900.19;4955509;29;20059;-90
2021/10/28 05:37:54;;;;;;;6.35;1.58;;;;;;;19.14;62.38;99878.81;4955500;29;20452;-90
2021/10/28 05:40:20;;;;;;;9.25;1.60;;;;;;;19.24;62.34;99883.13;4952075;29;20027;-90
2021/10/28 05:42:49;;;;;;;6.47;1.67;;;;;;;19.25;61.90;99887.44;4955233;29;20042;-90
2021/10/28 05:45:16;;;;;;;8.38;1.65;;;;;;;19.24;61.92;99883.94;4955444;29;20031;-89
2021/10/28 05:47:41;;;;;;;5.28;1.70;;;;;;;19.46;61.60;99884.16;4955430;29;20114;-91
2021/10/28 05:50:10;;;;;;;13.05;2.58;;;;;;;19.08;62.75;99874.19;4955392;29;20102;-89
2021/10/28 05:52:35;;;;;;;6.63;1.98;;;;;;;19.39;61.93;99870.72;4955004;29;20045;-90
2021/10/28 05:55:03;;;;;;;9.95;1.80;;;;;;;18.95;63.32;99874.72;4938799;29;20031;-90
2021/10/28 05:57:28;;;;;;;9.38;2.20;;;;;;;18.71;63.95;99878.25;4935360;29;20477;-89
2021/10/28 05:59:54;;;;;;;6.13;1.58;;;;;;;19.00;63.57;99875.06;4935714;29;20115;-90
2021/10/28 06:02:19;;;;;;;8.23;1.70;;;;;;;19.13;63.26;99877.16;4935715;29;20032;-91
2021/10/28 06:04:45;;;;;;;10.35;2.05;;;;;;;18.60;64.08;99855.53;4935930;29;20544;-90
2021/10/28 06:07:10;;;;;;;11.90;2.45;;;;;;;18.83;63.72;99857.50;4935749;29;20434;-90
2021/10/28 06:09:35;;;;;;;13.40;2.08;;;;;;;18.89;63.55;99854.13;4944793;29;20027;-90
2021/10/28 06:12:01;;;;;;;8.68;1.63;;;;;;;18.78;63.52;99851.84;4954683;29;20035;-90
2021/10/28 06:14:27;;;;;;;4.55;1.50;;;;;;;18.79;63.42;99848.16;4954665;29;20047;-90
2021/10/28 06:16:58;;;;;;;7.55;1.73;;;;;;;18.76;63.39;99845.84;4954585;29;20031;-90
2021/10/28 06:19:23;;;;;;;6.00;1.55;;;;;;;19.02;62.29;99849.09;4954610;29;20102;-90
2021/10/28 06:21:49;;;;;;;8.65;2.05;;;;;;;18.81;62.61;99839.03;4954523;29;20110;-89
2021/10/28 06:24:15;;;;;;;7.22;2.13;;;;;;;18.77;63.04;99828.88;4945702;29;20035;-90
2021/10/28 06:26:40;;;;;;;9.43;1.83;;;;;;;18.99;62.17;99833.47;4918290;29;20024;-90
2021/10/28 06:29:05;;;;;;;10.40;2.13;;;;;;;18.60;62.45;99828.94;4918155;29;20067;-90
2021/10/28 06:31:31;;;;;;;9.60;2.20;;;;;;;18.53;62.81;99832.47;4935333;29;20035;-89
2021/10/28 06:34:01;;;;;;;10.48;2.10;;;;;;;18.86;61.40;99827.91;4935317;29;20051;-89
2021/10/28 06:36:27;;;;;;;7.47;1.83;;;;;;;19.01;60.96;99822.66;4935176;29;20464;-90
2021/10/28 06:38:52;;;;;;;5.97;1.88;;;;;;;19.23;60.56;99821.06;4942561;29;20378;-90
2021/10/28 06:41:18;;;;;;;8.57;2.03;;;;;;;19.06;61.29;99815.00;4954234;29;20023;-93
2021/10/28 06:43:44;;;;;;;7.03;1.80;;;;;;;19.12;61.18;99800.19;4954155;29;20114;-93
2021/10/28 06:46:10;;;;;;;8.15;1.90;;;;;;;19.01;61.28;99804.03;4954344;29;20416;-93
2021/10/28 06:48:35;;;;;;;9.05;2.00;;;;;;;19.22;60.80;99790.97;4936758;29;20474;-93
2021/10/28 06:51:01;;;;;;;11.07;1.70;;;;;;;19.13;61.17;99792.00;4938306;29;20055;-92
2021/10/28 06:53:34;;;;;;;8.10;2.58;;;;;;;19.16;60.79;99781.03;4943264;29;20030;-92
2021/10/28 07:03:53;;;;;;;11.52;2.70;;;;;;;19.36;60.19;99791.22;4953873;29;20200;-90
2021/10/28 07:06:23;;;;;;;11.13;3.65;;;;;;;19.35;60.19;99787.75;4953374;28;20193;-93
2021/10/28 07:11:47;;;;;;;5.50;1.90;;;;;;;18.66;61.72;99802.66;4949269;28;20035;-92
2021/10/28 07:14:13;;;;;;;12.35;2.60;;;;;;;18.68;61.96;99788.22;4953917;28;20393;-93
2021/10/28 07:16:46;;;;;;;6.53;2.13;;;;;;;19.07;60.67;99790.03;4953838;28;20111;-92
2021/10/28 07:19:41;;;;;;;10.15;1.90;;;;;;;19.32;60.02;99792.56;4953656;29;20051;-92
2021/10/28 07:57:34;;;;;;;13.70;1.90;;;;;;;18.92;58.34;99755.38;4934877;29;20062;-94
2021/10/28 08:13:47;;;;;;;8.93;1.98;;;;;;;19.63;56.88;99749.94;4953642;29;20544;-92
2021/10/28 08:18:50;;;;;;;4.38;1.90;;;;;;;19.54;57.25;99751.81;4953787;28;20284;-95
2021/10/28 08:28:58;;;;;;;10.70;1.77;;;;;;;19.14;58.58;99764.41;4958141;29;20088;-93
2021/10/28 08:31:27;;;;;;;7.53;1.80;;;;;;;19.53;57.68;99754.66;4957329;29;20597;-93
2021/10/28 08:33:52;;;;;;;4.72;1.20;;;;;;;19.62;57.46;99758.91;4955490;29;20024;-91
2021/10/28 08:36:39;;;;;;;10.52;2.58;;;;;;;19.54;57.82;99748.31;4959166;29;20027;-94
2021/10/28 08:39:05;;;;;;;5.72;1.40;;;;;;;19.83;57.34;99744.09;4949389;29;20473;-90
2021/10/28 08:41:32;;;;;;;6.38;1.17;;;;;;;19.36;58.32;99737.97;4950317;29;20071;-94
2021/10/28 08:44:00;;;;;;;5.65;1.50;;;;;;;18.79;59.64;99758.59;4952734;28;20041;-94
2021/10/28 08:46:27;;;;;;;11.07;1.90;;;;;;;19.26;58.81;99740.06;4954308;29;20031;-94
2021/10/28 08:48:57;;;;;;;7.50;1.60;;;;;;;19.40;58.31;99740.09;4955326;29;20066;-93
2021/10/28 08:54:06;;;;;;;7.90;1.77;;;;;;;19.72;57.58;99732.88;4947600;29;20477;-95
2021/10/28 09:24:40;;;;;;;6.57;1.38;;;;;;;19.48;58.04;99696.63;4950987;29;20041;-93
2021/10/28 09:32:32;;;;;;;6.32;2.00;;;;;;;19.29;58.63;99697.91;4956660;28;20433;-94
2021/10/28 09:51:43;;;;;;;11.20;2.22;;;;;;;19.45;59.31;99629.59;4954125;28;20015;-90
2021/10/28 09:59:40;;;;;;;6.82;2.03;;;;;;;19.74;58.74;99612.84;4953184;29;20090;-95
2021/10/28 10:02:17;;;;;;;6.68;1.75;;;;;;;19.63;59.13;99608.78;4949857;28;20256;-90
2021/10/28 10:04:44;;;;;;;12.07;2.10;;;;;;;19.27;59.88;99606.78;4936484;29;20102;-95
2021/10/28 10:07:12;;;;;;;6.15;1.98;;;;;;;19.54;58.85;99599.22;4941822;29;20027;-95
2021/10/28 10:09:38;;;;;;;6.70;1.60;;;;;;;19.46;59.19;99600.13;4954957;29;20086;-94
2021/10/28 10:12:04;;;;;;;5.35;1.85;;;;;;;19.57;58.70;99613.00;4955203;28;20033;-93
2021/10/28 10:14:31;;;;;;;7.75;2.17;;;;;;;19.71;58.38;99607.88;4955209;28;20503;-94
2021/10/28 10:16:57;;;;;;;5.05;1.45;;;;;;;19.80;58.48;99614.78;4955349;28;20058;-92
2021/10/28 10:19:35;;;;;;;6.55;2.22;;;;;;;20.03;57.85;99604.03;4955233;29;20436;-92
2021/10/28 10:22:16;;;;;;;8.93;1.85;;;;;;;19.68;57.98;99614.38;4944700;29;20031;-91
2021/10/28 12:45:58;;;;;;;17.90;2.83;;;;;;;20.86;56.20;99396.47;4955860;29;20093;-92
2021/10/28 12:57:01;;;;;;;11.48;2.33;;;;;;;22.29;51.95;99385.06;4917358;29;20080;-89
2021/10/28 13:48:37;;;;;;;8.48;2.10;;;;;;;20.87;55.35;99288.72;4936218;29;20034;-87
2021/10/28 13:58:21;;;;;;;8.98;2.15;;;;;;;21.22;54.91;99299.31;5035686;28;20042;-90
2021/10/28 14:35:20;;;;;;;11.75;1.98;;;;;;;19.58;59.88;99271.16;5047147;28;20471;-91
2021/10/28 15:41:48;;;;;;;8.70;2.67;;;;;;;19.72;61.51;99212.72;5031259;28;20395;-87
2021/10/28 15:58:33;;;;;;;12.18;3.47;;;;;;;19.53;62.33;99201.69;5028123;28;20034;-91
2021/10/28 16:22:43;;;;;;;13.82;3.50;;;;;;;19.32;62.89;99212.34;5030938;28;20083;-91
2021/10/28 16:25:09;;;;;;;20.05;3.65;;;;;;;19.19;63.10;99215.69;5033059;28;20021;-90
2021/10/28 16:27:35;;;;;;;12.23;3.65;;;;;;;18.76;64.18;99204.97;5034233;28;20029;-88
2021/10/28 16:30:01;;;;;;;14.40;4.38;;;;;;;19.22;62.95;99210.00;5032146;28;20040;-88
2021/10/28 16:32:26;;;;;;;9.80;3.47;;;;;;;19.15;62.94;99201.13;5031656;28;20037;-89
2021/10/28 16:34:52;;;;;;;12.00;3.85;;;;;;;19.19;62.73;99211.22;5031978;28;20032;-88
2021/10/28 16:37:18;;;;;;;12.60;3.78;;;;;;;19.32;62.57;99215.84;5030391;28;20029;-87
2021/10/28 16:39:44;;;;;;;13.23;3.13;;;;;;;19.02;62.90;99199.97;5024596;28;20057;-86
2021/10/28 16:42:09;;;;;;;11.52;3.70;;;;;;;19.13;62.93;99205.81;5014169;28;20111;-86
2021/10/28 16:44:35;;;;;;;11.65;3.40;;;;;;;19.10;63.26;99199.03;5023975;28;20106;-86
2021/10/28 16:47:01;;;;;;;12.20;3.35;;;;;;;19.38;62.25;99192.97;5029389;28;20147;-88
2021/10/28 16:49:28;;;;;;;11.50;3.25;;;;;;;19.14;62.85;99196.84;5027823;28;20025;-87
2021/10/28 16:51:53;;;;;;;12.77;3.08;;;;;;;18.79;63.95;99184.16;5028523;28;20030;-89
2021/10/28 16:54:18;;;;;;;12.35;4.00;;;;;;;18.86;63.70;99188.72;5029828;28;20028;-86
2021/10/28 16:56:48;;;;;;;7.28;3.67;;;;;;;19.43;62.38;99177.22;5019812;28;20017;-88
2021/10/28 16:59:14;;;;;;;10.13;3.70;;;;;;;19.23;63.08;99177.03;5029476;28;20049;-86
2021/10/28 17:01:40;;;;;;;17.92;3.78;;;;;;;19.07;63.14;99174.66;5023996;28;20132;-86
2021/10/28 17:04:05;;;;;;;14.55;3.53;;;;;;;18.84;64.13;99173.00;5016187;28;20041;-86
2021/10/28 17:06:31;;;;;;;20.30;3.53;;;;;;;19.32;62.67;99165.28;5026957;28;20037;-86
2021/10/28 17:08:57;;;;;;;9.45;3.80;;;;;;;19.24;63.11;99176.03;5020966;28;20480;-86
2021/10/28 17:11:26;;;;;;;17.00;4.03;;;;;;;19.03;63.71;99167.03;5029807;28;20025;-85
2021/10/28 17:13:51;;;;;;;15.70;4.05;;;;;;;19.09;63.63;99161.97;5029932;28;20037;-86
2021/10/28 17:16:17;;;;;;;13.60;5.30;;;;;;;18.98;63.92;99168.63;5029879;28;20021;-86
2021/10/28 17:18:42;;;;;;;15.15;3.53;;;;;;;18.69;65.02;99157.03;5029365;28;20025;-86
2021/10/28 17:21:07;;;;;;;13.07;3.75;;;;;;;19.10;64.01;99159.13;5030408;28;20095;-87
2021/10/28 17:23:38;;;;;;;16.10;4.43;;;;;;;18.83;64.95;99158.03;5028681;28;20033;-87
2021/10/28 17:26:04;;;;;;;14.38;3.55;;;;;;;18.99;64.17;99151.66;5030027;28;20043;-92
2021/10/28 17:28:34;;;;;;;13.85;4.18;;;;;;;18.55;65.91;99153.41;5030786;28;20379;-90
2021/10/28 17:31:01;;;;;;;14.10;4.45;;;;;;;19.10;64.35;99140.50;5028398;28;20117;-90
2021/10/28 17:33:26;;;;;;;6.68;3.70;;;;;;;18.90;64.78;99136.81;5033692;28;20044;-96
2021/10/28 17:35:53;;;;;;;12.23;3.60;;;;;;;19.15;64.07;99132.75;5035062;28;20108;-96
2021/10/28 17:38:19;;;;;;;20.92;4.00;;;;;;;19.06;63.95;99141.09;5033964;28;20394;-94
2021/10/28 17:40:46;;;;;;;18.00;4.05;;;;;;;19.42;63.37;99131.16;5036009;28;20033;-96
2021/10/28 17:43:12;;;;;;;10.85;4.15;;;;;;;18.61;65.56;99135.88;5029921;28;20037;-96
2021/10/28 17:45:40;;;;;;;8.23;3.03;;;;;;;19.07;64.34;99138.22;5316333;23;20055;-92
2021/10/28 17:48:06;;;;;;;14.38;3.30;;;;;;;18.59;65.92;99129.94;5046078;28;20021;-96
2021/10/28 17:50:32;;;;;;;14.23;3.10;;;;;;;18.90;65.59;99127.03;5049401;28;20109;-96
2021/10/28 17:52:58;;;;;;;13.25;3.85;;;;;;;18.77;66.08;99121.53;5047642;28;20040;-96
2021/10/28 17:55:24;;;;;;;12.27;4.15;;;;;;;18.65;66.42;99115.06;5041163;28;20017;-93
2021/10/28 17:57:50;;;;;;;15.20;4.32;;;;;;;18.28;68.21;99124.84;5032146;28;20072;-93
2021/10/28 18:00:18;;;;;;;19.60;4.85;;;;;;;18.46;68.02;99113.81;5021388;28;20498;-93
2021/10/28 18:02:44;;;;;;;14.55;4.00;;;;;;;17.98;69.30;99115.06;5032858;28;20105;-94
2021/10/28 18:05:10;;;;;;;11.18;4.00;;;;;;;18.34;69.08;99116.94;5030975;28;20133;-93
2021/10/28 18:07:36;;;;;;;15.95;4.53;;;;;;;18.70;68.46;99118.81;5034515;28;20034;-96
2021/10/28 18:10:05;;;;;;;18.85;4.97;;;;;;;18.53;68.97;99114.72;5027066;28;20056;-95
2021/10/28 18:12:31;;;;;;;16.17;4.82;;;;;;;18.65;68.89;99113.22;5038731;28;20034;-96
2021/10/28 18:14:58;;;;;;;16.95;5.40;;;;;;;18.54;68.77;99111.91;5040412;28;20053;-96
2021/10/28 18:17:23;;;;;;;16.48;4.82;;;;;;;18.55;69.04;99110.06;5390334;23;20053;-94
2021/10/28 18:19:49;;;;;;;13.27;4.88;;;;;;;18.38;69.49;99112.09;5015383;28;20030;-94
2021/10/28 18:22:15;;;;;;;16.90;5.75;;;;;;;18.31;69.69;99111.22;5011460;28;20033;-92
2021/10/28 18:24:41;;;;;;;14.02;4.95;;;;;;;18.66;68.80;99104.25;5009679;28;20109;-93
2021/10/28 18:27:08;;;;;;;10.65;5.30;;;;;;;18.55;68.95;99094.09;5013028;28;20495;-92
2021/10/28 18:29:35;;;;;;;19.65;6.30;;;;;;;18.93;68.04;99094.72;5002624;28;20030;-90
2021/10/28 18:32:00;;;;;;;20.45;5.65;;;;;;;18.38;70.15;99091.69;5008527;28;20030;-92
2021/10/28 18:34:26;;;;;;;19.42;4.95;;;;;;;18.56;69.62;99088.59;5011942;28;20590;-92
2021/10/28 18:36:52;;;;;;;12.23;4.82;;;;;;;18.47;69.88;99083.59;5011800;28;20022;-92
2021/10/28 18:39:17;;;;;;;18.55;5.68;;;;;;;18.39;70.18;99084.53;5014864;28;20061;-91
2021/10/28 18:41:46;;;;;;;20.52;5.00;;;;;;;18.74;69.23;99085.50;5014656;28;20040;-92
2021/10/28 18:44:12;;;;;;;14.45;5.32;;;;;;;18.59;69.67;99082.91;5014784;28;20480;-91
2021/10/28 18:46:38;;;;;;;17.40;4.53;;;;;;;18.03;71.52;99085.31;5014782;28;20026;-93
2021/10/28 18:49:04;;;;;;;19.92;5.38;;;;;;;18.57;69.71;99074.28;5016111;28;20026;-92
2021/10/28 18:51:34;;;;;;;12.50;4.22;;;;;;;18.19;70.90;99071.81;5014587;28;20084;-92
2021/10/28 18:54:01;;;;;;;8.33;3.93;;;;;;;18.53;69.97;99064.22;5014851;28;20534;-92
2021/10/28 18:56:27;;;;;;;14.25;3.83;;;;;;;18.19;70.50;99061.19;5005474;28;20042;-91
2021/10/28 18:58:53;;;;;;;13.15;3.88;;;;;;;18.16;70.93;99060.75;5014658;28;20047;-93
2021/10/28 19:01:19;;;;;;;10.60;5.30;;;;;;;18.16;71.33;99050.13;5013594;28;20068;-92
2021/10/28 19:03:45;;;;;;;10.43;3.80;;;;;;;18.36;70.55;99061.78;5015549;28;20026;-93
2021/10/28 19:06:13;;;;;;;8.55;3.88;;;;;;;18.21;71.07;99050.41;5013400;28;20026;-93
2021/10/28 19:08:40;;;;;;;12.10;3.33;;;;;;;17.86;72.29;99042.19;5014995;28;20073;-96
2021/10/28 19:11:07;;;;;;;14.13;4.90;;;;;;;18.17;71.39;99047.28;5006153;28;20021;-94
2021/10/28 19:13:33;;;;;;;10.07;3.13;;;;;;;17.95;72.52;99029.63;5019456;28;20076;-95
2021/10/28 19:15:59;;;;;;;13.80;3.40;;;;;;;18.17;71.97;99052.59;5015208;28;20034;-93
2021/10/28 19:18:25;;;;;;;8.93;3.15;;;;;;;18.02;72.78;99043.81;5014282;28;20026;-92
2021/10/28 19:20:50;;;;;;;10.95;3.33;;;;;;;17.91;73.88;99021.22;5015134;28;20060;-94
2021/10/28 19:23:16;;;;;;;11.95;3.40;;;;;;;18.39;72.52;99024.22;5011628;28;20022;-94
2021/10/28 19:25:41;;;;;;;11.23;2.85;;;;;;;18.47;71.94;99020.63;5032037;28;20022;-94
2021/10/28 19:28:08;;;;;;;9.35;2.67;;;;;;;18.82;70.45;99012.81;5029253;28;20021;-95
2021/10/28 19:33:15;;;;;;;14.02;3.38;;;;;;;18.45;71.59;99021.84;5019341;28;20360;-94
2021/10/28 19:35:45;;;;;;;12.90;3.45;;;;;;;18.33;72.83;99014.34;5016090;28;20022;-93
2021/10/28 19:38:44;;;;;;;7.50;2.72;;;;;;;18.44;72.12;99002.38;5007032;28;20030;-93
2021/10/28 19:46:26;;;;;;;15.65;4.72;;;;;;;18.44;72.58;99005.03;5007443;28;20030;-93
2021/10/28 19:48:51;;;;;;;11.23;3.50;;;;;;;18.51;72.04;99010.44;4998377;28;20014;-93
2021/10/28 19:51:17;;;;;;;10.13;4.00;;;;;;;18.18;73.49;99001.09;5006218;28;20034;-94
2021/10/28 19:53:46;;;;;;;9.77;3.65;;;;;;;18.09;73.51;99007.56;4997211;28;20165;-92
2021/10/28 19:56:14;;;;;;;7.80;3.17;;;;;;;18.58;72.42;99006.84;5014942;28;20045;-93
2021/10/28 19:58:45;;;;;;;12.45;4.28;;;;;;;18.36;73.67;98992.69;5012443;28;20030;-93
2021/10/28 20:01:30;;;;;;;9.18;3.25;;;;;;;18.39;74.60;98989.69;5015725;28;20076;-93
2021/10/28 20:06:44;;;;;;;11.18;3.80;;;;;;;17.92;77.32;98980.38;5013814;28;20026;-93
2021/10/28 20:14:52;;;;;;;9.32;3.45;;;;;;;18.66;73.90;98966.00;5032869;23;20049;-94
2021/10/28 20:22:38;;;;;;;17.05;4.13;;;;;;;18.28;75.99;98954.81;4996445;28;20038;-91
2021/10/28 20:25:06;;;;;;;9.90;3.70;;;;;;;18.19;75.13;98956.78;4993622;28;20030;-93
2021/10/28 20:27:32;;;;;;;12.70;4.15;;;;;;;18.27;75.23;98958.50;5005914;28;20399;-93
2021/10/28 20:29:58;;;;;;;11.25;4.22;;;;;;;18.36;75.17;98954.69;5013527;28;20025;-94
2021/10/28 20:32:24;;;;;;;8.85;3.00;;;;;;;18.31;75.36;98941.16;5021400;28;20037;-95
2021/10/28 20:35:06;;;;;;;14.77;3.97;;;;;;;17.88;77.64;98939.28;5021048;28;20030;-95
2021/10/28 20:37:33;;;;;;;15.15;3.60;;;;;;;18.04;77.24;98930.25;5013363;28;20025;-95
2021/10/28 20:39:59;;;;;;;10.18;3.60;;;;;;;18.22;76.25;98927.97;5013436;28;20044;-96
2021/10/28 20:42:35;;;;;;;7.93;3.17;;;;;;;18.17;76.58;98930.41;5001991;28;20030;-95
2021/10/28 20:45:01;;;;;;;13.68;3.45;;;;;;;18.26;75.85;98922.31;4994491;28;20028;-94
2021/10/28 20:47:26;;;;;;;7.82;2.85;;;;;;;17.97;77.56;98921.38;5012329;28;20030;-93
2021/10/28 20:49:52;;;;;;;11.48;3.13;;;;;;;18.70;74.30;98924.72;5014308;28;20018;-93
2021/10/28 20:52:17;;;;;;;12.00;3.13;;;;;;;18.32;76.32;98932.16;5012734;28;20434;-93